createdAt,value
2023-03-26T00:01:24.547Z,100.00
2023-03-26T00:03:58.305Z,100.00
2023-03-26T00:06:36.726Z,100.00
2023-03-26T00:09:06.045Z,100.00
2023-03-26T00:11:32.803Z,100.00
2023-03-26T00:13:59.441Z,100.00
2023-03-26T00:16:30.183Z,100.00
2023-03-26T00:18:58.120Z,100.00
2023-03-26T00:21:28.416Z,100.00
2023-03-26T00:23:58.427Z,100.00
2023-03-26T00:26:26.656Z,100.00
2023-03-26T00:28:54.762Z,100.00
2023-03-26T00:31:21.517Z,100.00
2023-03-26T00:33:48.597Z,100.00
2023-03-26T00:36:17.440Z,100.00
2023-03-26T00:38:46.859Z,100.00
2023-03-26T00:41:23.312Z,100.00
2023-03-26T00:43:58.159Z,100.00
2023-03-26T00:46:26.958Z,100.00
2023-03-26T00:48:54.515Z,100.00
2023-03-26T00:51:22.216Z,100.00
2023-03-26T00:53:50.461Z,100.00
2023-03-26T00:56:18.041Z,100.00
2023-03-26T00:58:46.380Z,100.00
2023-03-26T01:01:17.142Z,100.00
2023-03-26T01:04:00.841Z,100.00
2023-03-26T01:06:36.719Z,100.00
2023-03-26T01:09:17.285Z,100.00
2023-03-26T01:11:45.598Z,100.00
2023-03-26T01:14:17.637Z,100.00
2023-03-26T01:16:50.081Z,100.00
2023-03-26T01:19:26.008Z,100.00
2023-03-26T01:21:52.783Z,100.00
2023-03-26T01:24:19.674Z,100.00
2023-03-26T01:27:09.709Z,100.00
2023-03-26T01:29:42.988Z,100.00
2023-03-26T01:32:21.474Z,100.00
2023-03-26T01:35:04.656Z,100.00
2023-03-26T01:38:11.021Z,100.00
2023-03-26T01:40:57.112Z,100.00
2023-03-26T01:43:29.722Z,100.00
2023-03-26T01:46:02.039Z,100.00
2023-03-26T01:48:33.358Z,100.00
2023-03-26T01:51:00.049Z,100.00
2023-03-26T01:53:27.642Z,100.00
2023-03-26T01:56:24.963Z,100.00
2023-03-26T01:59:04.373Z,100.00
2023-03-26T02:01:46.213Z,100.00
2023-03-26T02:04:45.971Z,100.00
2023-03-26T02:07:41.969Z,100.00
2023-03-26T02:10:26.064Z,100.00
2023-03-26T02:12:54.165Z,100.00
2023-03-26T02:15:21.344Z,100.00
2023-03-26T02:17:49.624Z,100.00
2023-03-26T02:20:19.126Z,100.00
2023-03-26T02:22:47.309Z,100.00
2023-03-26T02:25:17.517Z,100.00
2023-03-26T02:27:45.457Z,100.00
2023-03-26T02:30:19.207Z,100.00
2023-03-26T02:32:46.029Z,100.00
2023-03-26T02:35:13.436Z,100.00
2023-03-26T02:37:42.029Z,100.00
2023-03-26T02:40:11.813Z,100.00
2023-03-26T02:42:39.352Z,100.00
2023-03-26T02:45:07.163Z,100.00
2023-03-26T02:47:34.950Z,100.00
2023-03-26T02:50:03.778Z,100.00
2023-03-26T02:52:30.767Z,100.00
2023-03-26T02:54:57.727Z,100.00
2023-03-26T02:57:25.175Z,100.00
2023-03-26T02:59:52.789Z,100.00
2023-03-26T03:02:20.267Z,100.00
2023-03-26T03:04:47.040Z,100.00
2023-03-26T03:07:14.989Z,100.00
2023-03-26T03:09:41.732Z,100.00
2023-03-26T03:12:08.586Z,100.00
2023-03-26T03:14:35.374Z,100.00
2023-03-26T03:17:02.315Z,100.00
2023-03-26T03:19:29.238Z,100.00
2023-03-26T03:21:56.322Z,100.00
2023-03-26T03:24:23.529Z,100.00
2023-03-26T03:26:50.493Z,100.00
2023-03-26T03:29:17.337Z,100.00
2023-03-26T03:31:44.148Z,100.00
2023-03-26T03:34:10.895Z,100.00
2023-03-26T03:36:38.483Z,100.00
2023-03-26T03:39:05.518Z,100.00
2023-03-26T03:41:32.274Z,100.00
2023-03-26T03:44:00.028Z,100.00
2023-03-26T03:46:26.713Z,100.00
2023-03-26T03:48:53.365Z,100.00
2023-03-26T03:51:20.420Z,100.00
2023-03-26T03:53:47.620Z,100.00
2023-03-26T03:56:14.910Z,100.00
2023-03-26T03:58:42.434Z,100.00
2023-03-26T04:01:09.240Z,100.00
2023-03-26T04:03:38.864Z,100.00
2023-03-26T04:06:07.321Z,100.00
2023-03-26T04:08:34.776Z,100.00
2023-03-26T04:11:01.693Z,100.00
2023-03-26T04:13:28.868Z,100.00
2023-03-26T04:15:57.143Z,100.00
2023-03-26T04:18:24.027Z,100.00
2023-03-26T04:20:50.814Z,100.00
2023-03-26T04:23:19.347Z,100.00
2023-03-26T04:25:56.180Z,100.00
2023-03-26T04:28:33.674Z,100.00
2023-03-26T04:31:03.786Z,100.00
2023-03-26T04:33:33.920Z,100.00
2023-03-26T04:36:03.059Z,100.00
2023-03-26T04:38:34.229Z,100.00
2023-03-26T04:41:04.031Z,100.00
2023-03-26T04:43:31.416Z,100.00
2023-03-26T04:45:58.062Z,100.00
2023-03-26T04:48:24.722Z,100.00
2023-03-26T04:50:51.739Z,100.00
2023-03-26T04:53:21.708Z,100.00
2023-03-26T04:55:56.223Z,100.00
2023-03-26T04:58:32.868Z,100.00
2023-03-26T05:01:10.393Z,100.00
2023-03-26T05:03:39.265Z,100.00
2023-03-26T05:06:06.379Z,100.00
2023-03-26T05:08:33.325Z,100.00
2023-03-26T05:11:00.285Z,100.00
2023-03-26T05:13:27.333Z,100.00
2023-03-26T05:15:55.857Z,100.00
2023-03-26T05:18:22.504Z,100.00
2023-03-26T05:20:49.302Z,100.00
2023-03-26T05:23:16.129Z,100.00
2023-03-26T05:25:42.826Z,100.00
2023-03-26T05:28:10.957Z,100.00
2023-03-26T05:30:37.781Z,100.00
2023-03-26T05:33:05.020Z,100.00
2023-03-26T05:35:32.121Z,100.00
2023-03-26T05:37:58.809Z,100.00
2023-03-26T05:40:25.468Z,100.00
2023-03-26T05:42:52.320Z,100.00
2023-03-26T05:45:19.082Z,100.00
2023-03-26T05:47:45.872Z,100.00
2023-03-26T05:50:12.656Z,100.00
2023-03-26T05:52:41.709Z,100.00
2023-03-26T05:55:09.945Z,100.00
2023-03-26T05:57:36.730Z,100.00
2023-03-26T06:00:08.751Z,100.00
2023-03-26T06:02:36.072Z,100.00
2023-03-26T06:05:02.996Z,100.00
2023-03-26T06:07:30.092Z,100.00
2023-03-26T06:09:57.030Z,100.00
2023-03-26T06:12:23.630Z,100.00
2023-03-26T06:16:06.558Z,100.00
2023-03-26T06:18:33.253Z,100.00
2023-03-26T06:20:59.996Z,100.00
2023-03-26T06:23:26.780Z,100.00
2023-03-26T06:25:53.403Z,100.00
2023-03-26T06:28:20.218Z,100.00
2023-03-26T06:30:48.893Z,100.00
2023-03-26T06:33:15.912Z,100.00
2023-03-26T06:35:44.352Z,100.00
2023-03-26T06:38:11.805Z,100.00
2023-03-26T06:40:38.698Z,100.00
2023-03-26T06:43:07.579Z,100.00
2023-03-26T06:45:37.675Z,100.00
2023-03-26T06:48:04.998Z,100.00
2023-03-26T06:50:33.097Z,100.00
2023-03-26T06:52:59.884Z,100.00
2023-03-26T06:55:27.071Z,100.00
2023-03-26T06:57:56.039Z,100.00
2023-03-26T07:00:22.886Z,100.00
2023-03-26T07:02:51.925Z,100.00
2023-03-26T07:05:18.966Z,100.00
2023-03-26T07:07:47.573Z,100.00
2023-03-26T07:10:16.739Z,100.00
2023-03-26T07:12:43.541Z,100.00
2023-03-26T07:15:10.692Z,100.00
2023-03-26T07:17:37.650Z,100.00
2023-03-26T07:20:06.578Z,100.00
2023-03-26T07:22:34.478Z,100.00
2023-03-26T07:25:03.671Z,100.00
2023-03-26T07:27:49.236Z,100.00
2023-03-26T07:30:47.528Z,100.00
2023-03-26T07:33:38.117Z,100.00
2023-03-26T07:36:20.861Z,100.00
2023-03-26T07:39:14.393Z,100.00
2023-03-26T07:41:54.287Z,100.00
2023-03-26T07:44:54.008Z,100.00
2023-03-26T07:47:33.344Z,100.00
2023-03-26T07:50:00.552Z,100.00
2023-03-26T07:52:28.267Z,100.00
2023-03-26T07:54:55.696Z,100.00
2023-03-26T07:58:00.980Z,100.00
2023-03-26T08:00:37.288Z,100.00
2023-03-26T08:03:16.138Z,100.00
2023-03-26T08:05:57.945Z,100.00
2023-03-26T08:08:46.292Z,100.00
2023-03-26T08:11:40.370Z,100.00
2023-03-26T08:14:24.532Z,100.00
2023-03-26T08:17:38.809Z,100.00
2023-03-26T08:20:32.640Z,100.00
2023-03-26T08:23:14.770Z,100.00
2023-03-26T08:25:59.439Z,100.00
2023-03-26T08:28:58.828Z,100.00
2023-03-26T08:31:36.501Z,100.00
2023-03-26T08:34:03.234Z,100.00
2023-03-26T08:36:30.129Z,100.00
2023-03-26T08:38:59.749Z,100.00
2023-03-26T08:41:55.871Z,100.00
2023-03-26T08:44:48.947Z,100.00
2023-03-26T08:47:40.350Z,100.00
2023-03-26T08:50:44.326Z,100.00
2023-03-26T08:53:40.268Z,100.00
2023-03-26T08:56:25.872Z,100.00
2023-03-26T08:59:14.361Z,100.00
2023-03-26T09:02:08.885Z,100.00
2023-03-26T09:05:10.653Z,100.00
2023-03-26T09:07:52.618Z,100.00
2023-03-26T09:10:43.905Z,100.00
2023-03-26T09:13:45.239Z,100.00
2023-03-26T09:17:02.792Z,100.00
2023-03-26T09:19:56.593Z,100.00
2023-03-26T09:22:38.356Z,100.00
2023-03-26T09:25:12.688Z,100.00
2023-03-26T09:28:00.155Z,100.00
2023-03-26T09:30:45.372Z,100.00
2023-03-26T09:33:23.550Z,100.00
2023-03-26T09:35:54.264Z,100.00
2023-03-26T09:38:36.901Z,100.00
2023-03-26T09:41:34.722Z,100.00
2023-03-26T09:44:25.608Z,100.00
2023-03-26T09:46:55.493Z,100.00
2023-03-26T09:49:44.029Z,100.00
2023-03-26T09:52:53.444Z,100.00
2023-03-26T09:55:50.962Z,100.00
2023-03-26T09:58:42.806Z,100.00
2023-03-26T10:01:11.249Z,100.00
2023-03-26T10:04:12.451Z,100.00
2023-03-26T10:07:03.762Z,100.00
2023-03-26T10:09:38.642Z,100.00
2023-03-26T10:12:41.942Z,100.00
2023-03-26T10:15:27.448Z,100.00
2023-03-26T10:18:32.336Z,100.00
2023-03-26T10:21:10.671Z,100.00
2023-03-26T10:24:02.724Z,100.00
2023-03-26T10:26:31.897Z,100.00
2023-03-26T10:29:09.800Z,100.00
2023-03-26T10:32:10.945Z,100.00
2023-03-26T10:34:58.292Z,100.00
2023-03-26T10:37:40.989Z,100.00
2023-03-26T10:40:24.269Z,100.00
2023-03-26T10:43:36.514Z,100.00
2023-03-26T10:46:31.876Z,100.00
2023-03-26T10:49:14.740Z,100.00
2023-03-26T10:52:07.902Z,100.00
2023-03-26T10:54:51.601Z,100.00
2023-03-26T10:57:33.455Z,100.00
2023-03-26T11:00:25.329Z,100.00
2023-03-26T11:03:13.556Z,100.00
2023-03-26T11:05:49.359Z,100.00
2023-03-26T11:08:31.188Z,100.00
2023-03-26T11:11:22.057Z,100.00
2023-03-26T11:14:03.611Z,100.00
2023-03-26T11:17:08.065Z,100.00
2023-03-26T11:19:51.523Z,100.00
2023-03-26T11:22:58.106Z,100.00
2023-03-26T11:25:44.423Z,100.00
2023-03-26T11:28:34.417Z,100.00
2023-03-26T11:31:14.225Z,100.00
2023-03-26T11:33:52.133Z,100.00
2023-03-26T11:36:31.954Z,100.00
2023-03-26T11:39:04.786Z,100.00
2023-03-26T11:41:31.473Z,100.00
2023-03-26T11:44:37.806Z,100.00
2023-03-26T11:47:10.514Z,100.00
2023-03-26T11:49:39.576Z,100.00
2023-03-26T11:52:07.705Z,100.00
2023-03-26T11:54:34.474Z,100.00
2023-03-26T11:57:10.826Z,100.00
2023-03-26T12:00:08.285Z,100.00
2023-03-26T12:02:40.606Z,100.00
2023-03-26T12:05:21.190Z,100.00
2023-03-26T12:08:17.877Z,100.00
2023-03-26T12:10:47.298Z,100.00
2023-03-26T12:13:37.220Z,100.00
2023-03-26T12:16:15.636Z,100.00
2023-03-26T12:18:44.838Z,100.00
2023-03-26T12:21:50.498Z,100.00
2023-03-26T12:29:26.698Z,100.00
2023-03-26T12:30:49.751Z,100.00
2023-03-26T12:33:34.351Z,100.00
2023-03-26T12:36:34.196Z,100.00
2023-03-26T12:39:17.146Z,100.00
2023-03-26T12:44:44.020Z,100.00
2023-03-26T12:44:59.279Z,100.00
2023-03-26T12:48:00.392Z,100.00
2023-03-26T12:50:34.258Z,100.00
2023-03-26T12:53:15.276Z,100.00
2023-03-26T12:56:01.681Z,100.00
2023-03-26T12:59:00.957Z,100.00
2023-03-26T13:02:20.182Z,100.00
2023-03-26T13:05:05.062Z,100.00
2023-03-26T13:08:12.722Z,100.00
2023-03-26T13:10:50.701Z,100.00
2023-03-26T13:13:46.141Z,100.00
2023-03-26T13:16:36.511Z,99.46
2023-03-26T13:19:28.808Z,98.33
2023-03-26T13:22:14.296Z,99.90
2023-03-26T13:25:04.371Z,97.22
2023-03-26T13:27:49.050Z,97.55
2023-03-26T13:30:38.038Z,97.20
2023-03-26T13:33:34.062Z,97.93
2023-03-26T13:36:24.535Z,97.44
2023-03-26T13:39:00.024Z,98.51
2023-03-26T13:41:58.063Z,98.38
2023-03-26T13:45:04.355Z,97.29
2023-03-26T13:47:38.557Z,98.33
2023-03-26T13:50:27.421Z,95.17
2023-03-26T13:53:06.523Z,95.37
2023-03-26T13:55:47.957Z,96.93
2023-03-26T13:58:36.613Z,96.13
2023-03-26T14:01:24.116Z,96.29
2023-03-26T14:04:07.744Z,95.20
2023-03-26T14:06:57.456Z,93.50
2023-03-26T14:12:57.000Z,96.85
2023-03-26T14:15:35.609Z,95.36
2023-03-26T14:18:23.796Z,93.87
2023-03-26T14:21:27.701Z,93.37
2023-03-26T14:24:31.614Z,96.35
2023-03-26T14:27:05.800Z,95.97
2023-03-26T14:30:02.010Z,95.65
2023-03-26T14:33:33.905Z,94.74
2023-03-26T14:36:19.266Z,94.78
2023-03-26T14:39:09.471Z,91.55
2023-03-26T14:42:02.070Z,92.75
2023-03-26T14:44:47.792Z,93.97
2023-03-26T14:47:37.650Z,92.51
2023-03-26T14:50:08.390Z,93.46
2023-03-26T14:53:01.139Z,93.04
2023-03-26T14:55:37.182Z,91.67
2023-03-26T14:58:53.812Z,91.51
2023-03-26T15:01:26.859Z,91.77
2023-03-26T15:04:11.466Z,93.86
2023-03-26T15:06:45.211Z,92.72
2023-03-26T15:09:56.716Z,92.55
2023-03-26T15:13:00.518Z,92.53
2023-03-26T15:15:58.013Z,92.86
2023-03-26T15:18:55.675Z,91.78
2023-03-26T15:21:37.630Z,92.65
2023-03-26T15:24:25.482Z,91.75
2023-03-26T15:27:19.908Z,90.09
2023-03-26T15:30:25.399Z,90.14
2023-03-26T15:33:10.502Z,90.41
2023-03-26T15:35:58.711Z,91.85
2023-03-26T15:38:56.157Z,90.81
2023-03-26T15:41:45.286Z,90.30
2023-03-26T15:44:25.534Z,91.41
2023-03-26T15:47:26.056Z,92.19
2023-03-26T15:50:15.579Z,86.89
2023-03-26T15:52:56.154Z,88.61
2023-03-26T15:55:31.643Z,90.22
2023-03-26T15:58:16.024Z,88.46
2023-03-26T16:01:19.134Z,87.82
2023-03-26T16:03:58.608Z,87.68
2023-03-26T16:06:32.869Z,88.11
2023-03-26T16:09:04.882Z,90.27
2023-03-26T16:11:57.648Z,87.39
2023-03-26T16:14:43.009Z,87.59
2023-03-26T16:17:23.542Z,88.31
2023-03-26T16:20:32.873Z,84.74
2023-03-26T16:23:04.784Z,86.24
2023-03-26T16:25:56.770Z,86.70
2023-03-26T16:28:30.668Z,83.87
2023-03-26T16:31:23.550Z,87.46
2023-03-26T16:34:03.175Z,87.42
2023-03-26T16:36:35.954Z,87.30
2023-03-26T16:39:05.682Z,86.78
2023-03-26T16:42:06.517Z,88.26
2023-03-26T16:45:14.438Z,87.24
2023-03-26T16:48:07.811Z,87.35
2023-03-26T16:50:49.576Z,85.92
2023-03-26T16:53:46.690Z,87.56
2023-03-26T16:56:50.094Z,86.25
2023-03-26T16:59:41.701Z,85.76
2023-03-26T17:02:31.732Z,85.95
2023-03-26T17:05:37.481Z,85.51
2023-03-26T17:08:13.381Z,86.88
2023-03-26T17:10:58.018Z,83.80
2023-03-26T17:13:36.522Z,83.38
2023-03-26T17:16:24.687Z,85.76
2023-03-26T17:19:06.693Z,83.77
2023-03-26T17:21:55.863Z,83.71
2023-03-26T17:24:28.332Z,84.27
2023-03-26T17:27:07.793Z,84.17
2023-03-26T17:29:58.121Z,84.48
2023-03-26T17:32:57.723Z,85.00
2023-03-26T17:35:39.313Z,85.23
2023-03-26T17:38:40.757Z,84.95
2023-03-26T17:41:24.894Z,83.88
2023-03-26T17:43:52.924Z,87.46
2023-03-26T17:46:39.670Z,86.54
2023-03-26T17:49:12.420Z,84.09
2023-03-26T17:52:45.036Z,83.53
2023-03-26T17:55:20.256Z,83.42
2023-03-26T17:58:08.158Z,84.06
2023-03-26T18:00:43.350Z,84.12
2023-03-26T18:03:23.291Z,84.03
2023-03-26T18:06:00.113Z,85.84
2023-03-26T18:08:44.891Z,85.45
2023-03-26T18:11:23.778Z,84.74
2023-03-26T18:14:03.877Z,84.67
2023-03-26T18:16:38.830Z,84.92
2023-03-26T18:19:18.980Z,83.86
2023-03-26T18:21:52.003Z,84.04
2023-03-26T18:24:27.623Z,84.20
2023-03-26T18:27:16.548Z,83.63
2023-03-26T18:30:27.943Z,84.41
2023-03-26T18:33:01.975Z,85.43
2023-03-26T18:35:54.413Z,85.07
2023-03-26T18:38:34.997Z,85.90
2023-03-26T18:41:06.914Z,86.52
2023-03-26T18:43:44.016Z,84.32
2023-03-26T18:46:15.555Z,85.01
2023-03-26T18:48:43.621Z,85.61
2023-03-26T18:51:11.040Z,86.15
2023-03-26T18:54:15.735Z,85.11
2023-03-26T18:56:39.254Z,82.90
2023-03-26T18:59:32.469Z,83.62
2023-03-26T19:02:04.377Z,85.65
2023-03-26T19:04:36.874Z,85.69
2023-03-26T19:07:09.918Z,84.11
2023-03-26T19:09:38.839Z,85.18
2023-03-26T19:12:18.486Z,85.57
2023-03-26T19:14:58.745Z,86.32
2023-03-26T19:17:31.581Z,86.63
2023-03-26T19:19:58.589Z,87.06
2023-03-26T19:22:26.433Z,87.51
2023-03-26T19:24:59.520Z,86.59
2023-03-26T19:27:26.467Z,88.22
2023-03-26T19:29:53.471Z,87.96
2023-03-26T19:32:28.480Z,87.43
2023-03-26T19:34:59.641Z,87.89
2023-03-26T19:37:33.874Z,87.22
2023-03-26T19:40:06.409Z,87.18
2023-03-26T19:42:44.070Z,88.33
2023-03-26T19:45:23.013Z,86.50
2023-03-26T19:48:00.366Z,86.79
2023-03-26T19:50:34.021Z,86.01
2023-03-26T19:53:18.945Z,87.04
2023-03-26T19:56:08.315Z,87.52
2023-03-26T19:58:36.468Z,87.16
2023-03-26T20:01:04.644Z,87.25
2023-03-26T20:03:43.303Z,87.34
2023-03-26T20:06:15.862Z,89.03
2023-03-26T20:08:42.812Z,87.05
2023-03-26T20:11:38.118Z,87.49
2023-03-26T20:14:13.843Z,88.41
2023-03-26T20:16:42.175Z,88.28
2023-03-26T20:19:11.107Z,88.04
2023-03-26T20:21:41.347Z,86.96
2023-03-26T20:24:16.817Z,87.62
2023-03-26T20:26:45.123Z,86.08
2023-03-26T20:29:13.060Z,88.13
2023-03-26T20:31:43.696Z,88.40
2023-03-26T20:34:23.368Z,87.92
2023-03-26T20:36:57.188Z,88.76
2023-03-26T20:39:28.054Z,87.91
2023-03-26T20:41:56.105Z,89.21
2023-03-26T20:44:23.361Z,89.27
2023-03-26T20:46:50.789Z,89.01
2023-03-26T20:49:18.314Z,88.71
2023-03-26T20:51:46.437Z,89.21
2023-03-26T20:54:17.588Z,88.59
2023-03-26T20:56:45.538Z,89.16
2023-03-26T20:59:18.959Z,89.22
2023-03-26T21:01:47.363Z,88.26
2023-03-26T21:04:16.037Z,88.78
2023-03-26T21:06:43.446Z,89.23
2023-03-26T21:09:17.550Z,89.58
2023-03-26T21:12:02.570Z,90.18
2023-03-26T21:14:40.337Z,89.52
2023-03-26T21:17:15.686Z,88.57
2023-03-26T21:19:43.632Z,90.52
2023-03-26T21:22:22.540Z,90.90
2023-03-26T21:24:59.502Z,90.74
2023-03-26T21:27:34.670Z,90.01
2023-03-26T21:30:01.933Z,91.44
2023-03-26T21:32:29.665Z,90.95
2023-03-26T21:34:58.995Z,91.01
2023-03-26T21:37:27.424Z,90.62
2023-03-26T21:39:54.196Z,90.44
2023-03-26T21:42:21.234Z,91.41
2023-03-26T21:44:48.153Z,91.57
2023-03-26T21:47:14.980Z,90.60
2023-03-26T21:49:41.865Z,91.64
2023-03-26T21:52:14.768Z,91.92
2023-03-26T21:54:43.022Z,91.30
2023-03-26T21:57:42.199Z,92.88
2023-03-26T22:00:16.078Z,92.72
2023-03-26T22:03:09.370Z,92.82
2023-03-26T22:05:57.554Z,92.46
2023-03-26T22:08:38.873Z,93.18
2023-03-26T22:11:07.119Z,92.71
2023-03-26T22:13:38.460Z,91.97
2023-03-26T22:16:07.363Z,93.37
2023-03-26T22:18:34.813Z,93.16
2023-03-26T22:21:01.979Z,91.96
2023-03-26T22:23:34.337Z,93.06
2023-03-26T22:26:00.929Z,92.21
2023-03-26T22:28:27.618Z,92.79
2023-03-26T22:30:54.397Z,91.88
2023-03-26T22:33:21.203Z,93.64
2023-03-26T22:35:47.874Z,92.47
2023-03-26T22:38:14.924Z,92.70
2023-03-26T22:40:41.501Z,92.77
2023-03-26T22:43:09.180Z,92.45
2023-03-26T22:45:37.434Z,92.83
2023-03-26T22:48:04.782Z,93.62
2023-03-26T22:50:32.402Z,92.88
2023-03-26T22:52:59.099Z,93.44
2023-03-26T22:55:29.006Z,93.56
2023-03-26T22:57:56.872Z,94.60
2023-03-26T23:00:23.923Z,93.55
2023-03-26T23:02:50.608Z,94.08
2023-03-26T23:05:18.133Z,93.90
2023-03-26T23:07:46.254Z,93.27
2023-03-26T23:10:13.547Z,94.92
2023-03-26T23:12:41.200Z,94.92
2023-03-26T23:15:09.707Z,95.56
2023-03-26T23:17:37.619Z,95.08
2023-03-26T23:20:12.454Z,95.82
2023-03-26T23:22:39.021Z,95.82
2023-03-26T23:25:06.471Z,95.88
2023-03-26T23:27:33.059Z,95.81
2023-03-26T23:30:01.169Z,96.12
2023-03-26T23:32:28.069Z,96.46
2023-03-26T23:34:55.813Z,96.12
2023-03-26T23:37:23.198Z,96.92
2023-03-26T23:39:51.008Z,96.23
2023-03-26T23:42:28.923Z,96.24
2023-03-26T23:44:57.418Z,96.25
2023-03-26T23:47:24.572Z,96.32
2023-03-26T23:49:51.360Z,96.57
2023-03-26T23:52:18.297Z,95.88
2023-03-26T23:54:45.657Z,96.27
2023-03-26T23:57:12.584Z,95.63
2023-03-26T23:59:41.544Z,97.13
